Time;durP1;ratioP1;P1;durP2;ratioP2;P2;SDS_P1;SDS_P2;PMS_P1;PMS_P2;Temp;Humidity;BMP_temperature;BMP_pressure;BME280_temperature;BME280_humidity;BME280_pressure;Samples;Min_cycle;Max_cycle;Signal;HPM_P1;HPM_P2
2022/03/31 00:00:12;;;;;;;4.78;1.08;;;;;;;12.91;31.36;101351.34;5015015;28;20041;-71
2022/03/31 00:02:37;;;;;;;7.13;1.58;;;;;;;12.51;32.68;101358.66;5029755;28;20036;-71
2022/03/31 00:05:03;;;;;;;3.05;0.70;;;;;;;12.43;32.59;101352.00;5030867;28;20104;-72
2022/03/31 00:07:29;;;;;;;8.65;1.83;;;;;;;12.87;31.47;101368.75;5031123;28;20468;-74
2022/03/31 00:09:54;;;;;;;8.15;1.80;;;;;;;13.03;31.37;101359.00;5030860;28;20483;-75
2022/03/31 00:12:20;;;;;;;7.60;1.77;;;;;;;12.99;31.93;101356.06;5030701;28;20073;-71
2022/03/31 00:14:45;;;;;;;4.75;1.45;;;;;;;12.41;33.24;101356.19;5030787;28;20032;-75
2022/03/31 00:17:11;;;;;;;5.07;1.17;;;;;;;12.96;32.50;101355.91;5029883;28;20108;-72
2022/03/31 00:19:37;;;;;;;11.38;1.90;;;;;;;13.55;31.82;101362.03;5030810;28;20033;-71
2022/03/31 00:22:03;;;;;;;14.15;1.77;;;;;;;13.17;32.37;101367.97;5030635;28;20098;-72
2022/03/31 00:24:29;;;;;;;6.40;1.33;;;;;;;12.82;34.59;101375.19;5030571;28;20029;-71
2022/03/31 00:26:54;;;;;;;3.22;1.77;;;;;;;12.46;36.37;101369.75;5030542;28;20034;-71
2022/03/31 00:29:20;;;;;;;2.78;1.08;;;;;;;12.92;35.06;101383.16;5029336;28;20037;-71
2022/03/31 00:31:45;;;;;;;5.90;1.88;;;;;;;13.43;33.70;101390.06;5030427;28;20033;-73
2022/03/31 00:34:12;;;;;;;7.47;1.42;;;;;;;12.89;36.22;101399.44;5030409;28;20030;-71
2022/03/31 00:36:37;;;;;;;5.40;1.48;;;;;;;12.90;35.88;101401.03;5030461;28;20026;-71
2022/03/31 00:41:47;;;;;;;2.28;1.05;;;;;;;12.69;35.69;101390.56;5030350;28;20068;-72
2022/03/31 00:44:12;;;;;;;4.85;1.40;;;;;;;12.18;37.23;101401.91;5030373;28;20053;-72
2022/03/31 00:46:49;;;;;;;8.27;2.28;;;;;;;13.00;36.06;101400.81;5030267;28;20025;-74
2022/03/31 00:49:16;;;;;;;9.95;1.90;;;;;;;12.22;36.84;101400.16;5030350;28;20017;-71
2022/03/31 00:51:42;;;;;;;7.30;1.65;;;;;;;11.79;37.17;101397.78;5030081;28;20117;-72
2022/03/31 00:54:08;;;;;;;9.13;1.77;;;;;;;12.23;37.08;101408.06;5030118;28;20112;-71
2022/03/31 00:56:33;;;;;;;8.15;1.38;;;;;;;12.26;37.81;101408.59;5030188;28;20021;-72
2022/03/31 00:58:59;;;;;;;5.28;1.65;;;;;;;12.34;37.86;101400.44;5030392;28;20028;-75
2022/03/31 01:01:26;;;;;;;2.33;1.63;;;;;;;11.77;38.30;101412.88;5030451;28;20438;-72
2022/03/31 01:03:51;;;;;;;7.93;1.95;;;;;;;12.82;36.52;101418.25;5030346;28;20416;-71
2022/03/31 01:06:17;;;;;;;6.53;1.58;;;;;;;12.10;37.83;101406.19;5030281;28;20025;-72
2022/03/31 01:08:42;;;;;;;7.15;1.98;;;;;;;12.34;37.52;101416.91;5028838;28;20509;-72
2022/03/31 01:11:08;;;;;;;5.03;2.03;;;;;;;12.27;37.61;101415.69;5029841;28;20029;-72
2022/03/31 01:13:34;;;;;;;4.38;1.95;;;;;;;12.52;36.90;101398.66;5029948;28;20116;-72
2022/03/31 01:16:00;;;;;;;2.85;1.13;;;;;;;11.97;38.00;101408.94;5029906;28;20024;-72
2022/03/31 01:18:26;;;;;;;10.98;2.85;;;;;;;12.43;38.42;101414.22;5029112;28;20021;-72
2022/03/31 01:20:52;;;;;;;3.88;1.35;;;;;;;12.25;38.68;101412.47;5029896;28;20063;-77
2022/03/31 01:23:17;;;;;;;3.75;1.77;;;;;;;12.07;38.18;101412.25;5029859;28;20097;-73
2022/03/31 01:25:43;;;;;;;7.97;1.90;;;;;;;12.39;37.31;101421.44;5029700;28;20063;-75
2022/03/31 01:28:09;;;;;;;5.97;1.40;;;;;;;12.29;36.88;101421.66;5028563;28;20056;-72
2022/03/31 01:30:35;;;;;;;9.73;2.38;;;;;;;12.03;36.61;101419.47;5029880;28;20468;-72
2022/03/31 01:33:00;;;;;;;4.47;1.38;;;;;;;12.50;35.57;101431.06;5029389;28;20506;-72
2022/03/31 01:35:26;;;;;;;16.92;2.10;;;;;;;12.50;35.16;101439.28;5029657;28;20059;-71
2022/03/31 01:37:52;;;;;;;4.43;1.48;;;;;;;12.72;34.19;101444.81;5029650;28;20053;-71
2022/03/31 01:40:18;;;;;;;2.80;1.15;;;;;;;11.90;34.84;101445.75;5029533;28;20079;-72
2022/03/31 01:42:45;;;;;;;6.32;1.50;;;;;;;12.56;33.78;101434.50;5029552;28;20038;-72
2022/03/31 01:45:14;;;;;;;5.07;1.80;;;;;;;12.07;34.94;101438.84;5029408;28;20467;-71
2022/03/31 01:47:40;;;;;;;3.47;1.20;;;;;;;12.26;33.53;101441.47;5029473;28;20026;-72
2022/03/31 01:50:09;;;;;;;6.57;1.65;;;;;;;12.38;33.12;101452.69;5028144;28;20373;-72
2022/03/31 01:52:35;;;;;;;7.27;1.60;;;;;;;12.42;33.96;101448.25;5029293;28;20034;-72
2022/03/31 01:55:01;;;;;;;9.05;1.20;;;;;;;11.94;34.69;101456.94;5029332;28;20057;-74
2022/03/31 01:57:26;;;;;;;5.32;1.02;;;;;;;11.93;34.92;101447.88;5029371;28;20166;-72
2022/03/31 01:59:52;;;;;;;4.47;1.58;;;;;;;12.18;35.11;101441.06;5029232;28;20029;-72
2022/03/31 02:02:18;;;;;;;4.53;1.77;;;;;;;12.58;35.87;101446.78;5029558;28;20025;-71
2022/03/31 02:04:43;;;;;;;3.65;1.70;;;;;;;12.08;37.08;101444.00;5029128;28;20519;-72
2022/03/31 02:07:10;;;;;;;5.95;1.80;;;;;;;11.77;36.81;101445.72;5029268;28;20113;-73
2022/03/31 02:09:35;;;;;;;5.35;1.13;;;;;;;11.58;37.32;101457.56;5029218;28;20025;-71
2022/03/31 02:12:02;;;;;;;6.25;2.08;;;;;;;11.89;36.47;101448.81;5029382;28;20029;-71
2022/03/31 02:14:29;;;;;;;7.00;1.67;;;;;;;12.06;36.85;101451.72;5029184;28;20030;-72
2022/03/31 02:16:58;;;;;;;4.72;1.80;;;;;;;12.01;36.88;101459.22;5029358;28;20021;-71
2022/03/31 02:19:25;;;;;;;5.75;1.30;;;;;;;11.38;37.23;101439.59;5029069;28;20386;-72
2022/03/31 02:21:50;;;;;;;4.32;1.92;;;;;;;11.40;38.58;101452.97;5028962;28;20082;-76
2022/03/31 02:24:16;;;;;;;6.32;2.05;;;;;;;12.07;36.85;101467.03;5029273;28;20025;-71
2022/03/31 02:26:42;;;;;;;5.78;1.90;;;;;;;10.78;39.03;101463.28;5028970;28;20108;-71
2022/03/31 02:29:07;;;;;;;6.22;1.73;;;;;;;11.73;38.01;101467.44;5029275;28;20114;-71
2022/03/31 02:31:33;;;;;;;5.38;1.77;;;;;;;12.40;36.69;101462.25;5032287;28;20113;-75
2022/03/31 02:33:59;;;;;;;10.40;1.98;;;;;;;11.73;38.15;101458.41;5032338;28;20032;-72
2022/03/31 02:36:28;;;;;;;4.93;1.38;;;;;;;11.80;37.81;101462.41;5032328;28;20116;-74
2022/03/31 02:38:54;;;;;;;10.90;1.85;;;;;;;11.30;38.62;101462.19;5032360;28;20032;-72
2022/03/31 02:41:20;;;;;;;4.22;1.50;;;;;;;11.64;37.39;101463.78;5032079;28;20038;-72
2022/03/31 02:43:46;;;;;;;5.70;1.27;;;;;;;11.61;37.78;101464.38;5032406;28;20025;-72
2022/03/31 02:46:12;;;;;;;7.70;1.65;;;;;;;11.99;37.56;101475.97;5032178;28;20030;-72
2022/03/31 02:48:37;;;;;;;3.85;1.27;;;;;;;11.54;37.97;101478.44;5032084;28;20026;-72
2022/03/31 02:51:03;;;;;;;3.95;1.27;;;;;;;12.17;36.72;101482.47;5032052;28;20036;-72
2022/03/31 02:56:13;;;;;;;7.60;1.15;;;;;;;11.59;37.11;101486.56;5031092;28;20044;-72
2022/03/31 02:58:39;;;;;;;5.03;1.77;;;;;;;11.94;36.47;101484.31;5032225;28;20029;-72
2022/03/31 03:01:05;;;;;;;7.32;2.35;;;;;;;11.52;37.22;101477.13;5031992;28;20036;-72
2022/03/31 03:03:32;;;;;;;6.72;1.52;;;;;;;11.54;37.36;101481.19;5032199;28;20407;-72
2022/03/31 03:05:58;;;;;;;10.02;1.48;;;;;;;11.79;36.95;101485.38;5031882;28;20032;-72
2022/03/31 03:08:27;;;;;;;5.50;1.58;;;;;;;11.55;38.11;101481.97;5031882;28;20422;-73
2022/03/31 03:10:53;;;;;;;1.67;1.05;;;;;;;11.39;37.74;101495.13;5030426;28;20025;-71
2022/03/31 03:13:19;;;;;;;5.10;1.15;;;;;;;11.30;37.54;101488.72;5031816;28;20080;-75
2022/03/31 03:15:48;;;;;;;11.50;1.95;;;;;;;11.72;36.81;101484.97;5031766;28;20038;-72
2022/03/31 03:18:15;;;;;;;3.45;1.23;;;;;;;11.66;36.87;101487.00;5030523;28;20028;-72
2022/03/31 03:20:40;;;;;;;2.72;1.25;;;;;;;11.10;38.14;101487.13;5031654;28;20040;-75
2022/03/31 03:23:06;;;;;;;3.47;1.23;;;;;;;11.40;37.67;101485.81;5031583;28;20030;-72
2022/03/31 03:25:32;;;;;;;3.30;1.83;;;;;;;11.25;37.88;101488.81;5031514;28;20030;-72
2022/03/31 03:27:59;;;;;;;2.00;1.10;;;;;;;11.54;37.10;101467.50;5031534;28;20139;-73
2022/03/31 03:30:25;;;;;;;7.70;1.48;;;;;;;11.61;36.74;101486.25;5030343;28;20474;-71
2022/03/31 03:32:50;;;;;;;7.40;1.90;;;;;;;11.29;37.37;101478.91;5031459;28;20113;-72
2022/03/31 03:35:17;;;;;;;3.53;1.65;;;;;;;11.50;36.89;101498.53;5031444;28;20101;-72
2022/03/31 03:37:43;;;;;;;7.10;1.63;;;;;;;11.64;36.83;101486.47;5031385;28;20029;-72
2022/03/31 03:40:11;;;;;;;7.43;1.65;;;;;;;11.99;36.00;101494.34;5030770;28;20025;-72
2022/03/31 03:42:40;;;;;;;6.75;1.60;;;;;;;11.53;36.18;101495.97;5031139;28;20053;-73
2022/03/31 03:45:07;;;;;;;5.93;1.48;;;;;;;10.75;37.67;101494.78;5031241;28;20112;-72
2022/03/31 03:47:34;;;;;;;3.50;1.25;;;;;;;10.90;37.00;101498.41;5031225;28;20025;-72
2022/03/31 03:49:59;;;;;;;5.85;1.70;;;;;;;11.56;36.31;101506.34;5029971;28;20021;-71
2022/03/31 03:52:25;;;;;;;6.25;1.50;;;;;;;11.76;35.40;101502.41;5031072;28;20082;-72
2022/03/31 03:54:51;;;;;;;8.13;2.00;;;;;;;11.49;35.76;101505.09;5031375;28;20026;-72
2022/03/31 03:57:17;;;;;;;3.83;1.20;;;;;;;11.50;35.61;101506.72;5031055;28;20491;-73
2022/03/31 03:59:43;;;;;;;5.88;1.50;;;;;;;11.44;35.19;101521.59;5029747;28;20030;-72
2022/03/31 04:02:09;;;;;;;12.43;1.25;;;;;;;10.94;35.05;101516.63;5031032;28;20054;-76
2022/03/31 04:04:34;;;;;;;3.67;1.15;;;;;;;11.36;34.85;101512.97;5031231;28;20579;-72
2022/03/31 04:07:00;;;;;;;4.40;1.25;;;;;;;11.22;35.81;101528.50;5031172;28;20532;-72
2022/03/31 04:09:26;;;;;;;5.15;1.95;;;;;;;11.41;35.22;101523.03;5031050;28;20120;-72
2022/03/31 04:11:52;;;;;;;4.35;1.15;;;;;;;11.33;34.68;101521.75;5030794;28;20515;-71
2022/03/31 04:14:18;;;;;;;9.80;1.27;;;;;;;11.44;35.00;101519.69;5030801;28;20025;-72
2022/03/31 04:16:45;;;;;;;11.85;2.70;;;;;;;11.11;35.10;101527.88;5029547;28;20395;-72
2022/03/31 04:19:10;;;;;;;6.72;2.03;;;;;;;11.07;34.80;101521.38;5030691;28;20022;-71
2022/03/31 04:21:37;;;;;;;5.57;1.80;;;;;;;10.87;35.35;101518.94;5030726;28;20044;-72
2022/03/31 04:24:04;;;;;;;4.68;1.23;;;;;;;10.34;35.25;101516.38;5030590;28;20028;-73
2022/03/31 04:26:30;;;;;;;5.22;1.45;;;;;;;11.25;34.72;101535.31;5029382;28;20048;-72
2022/03/31 04:28:56;;;;;;;5.80;1.48;;;;;;;11.02;35.54;101537.84;5029386;28;20387;-74
2022/03/31 04:31:22;;;;;;;2.17;1.08;;;;;;;10.62;35.26;101535.69;5030471;28;20054;-71
2022/03/31 04:33:47;;;;;;;5.22;1.48;;;;;;;11.27;34.64;101547.59;5030243;28;20030;-72
2022/03/31 04:36:14;;;;;;;7.00;1.38;;;;;;;10.92;34.85;101538.00;5030486;28;20025;-72
2022/03/31 04:38:39;;;;;;;1.70;1.50;;;;;;;10.50;35.72;101538.84;5030412;28;20041;-75
2022/03/31 04:41:05;;;;;;;7.18;2.75;;;;;;;10.88;34.99;101525.19;5030212;28;20045;-71
2022/03/31 04:43:30;;;;;;;3.58;1.23;;;;;;;11.13;34.51;101534.97;5030685;28;20049;-72
2022/03/31 04:45:56;;;;;;;4.95;1.20;;;;;;;11.06;35.18;101538.88;5030427;28;20074;-71
2022/03/31 04:48:22;;;;;;;1.50;1.00;;;;;;;11.08;34.63;101550.34;5030306;28;20071;-72
2022/03/31 04:50:47;;;;;;;7.20;1.98;;;;;;;11.53;35.40;101550.72;5030207;28;20078;-73
2022/03/31 04:53:14;;;;;;;6.90;1.35;;;;;;;11.49;35.35;101544.22;5029292;28;20071;-72
2022/03/31 04:55:41;;;;;;;6.20;2.28;;;;;;;11.51;35.46;101542.00;5030534;28;20022;-72
2022/03/31 04:58:06;;;;;;;7.93;2.13;;;;;;;11.19;36.28;101547.47;5028844;28;20476;-71
2022/03/31 05:00:33;;;;;;;7.85;1.63;;;;;;;11.19;34.80;101550.19;5030036;28;20026;-72
2022/03/31 05:02:59;;;;;;;6.15;1.52;;;;;;;11.34;35.29;101549.97;5030134;28;20022;-72
2022/03/31 05:05:25;;;;;;;6.95;1.23;;;;;;;11.24;35.59;101552.84;5030082;28;20153;-72
2022/03/31 05:07:51;;;;;;;4.63;1.55;;;;;;;11.21;35.47;101569.84;5030306;28;20376;-72
2022/03/31 05:10:17;;;;;;;6.53;1.30;;;;;;;10.97;36.52;101569.94;5030033;28;20032;-72
2022/03/31 05:12:42;;;;;;;2.67;1.45;;;;;;;11.13;36.33;101568.59;5029884;28;20103;-72
2022/03/31 05:15:08;;;;;;;7.93;1.88;;;;;;;11.44;35.95;101579.06;5029874;28;20044;-72
2022/03/31 05:17:35;;;;;;;4.10;1.10;;;;;;;10.72;36.34;101577.34;5029799;28;20066;-72
2022/03/31 05:20:09;;;;;;;8.15;1.75;;;;;;;10.72;36.78;101574.63;5029865;28;20022;-74
2022/03/31 05:22:36;;;;;;;6.32;1.80;;;;;;;11.65;35.38;101583.09;5029834;28;20025;-75
2022/03/31 05:25:02;;;;;;;3.50;1.13;;;;;;;11.30;36.04;101585.28;5029708;28;20026;-72
2022/03/31 05:27:28;;;;;;;8.23;2.38;;;;;;;11.83;34.72;101575.97;5029742;28;20491;-72
2022/03/31 05:29:53;;;;;;;8.95;1.50;;;;;;;11.82;34.84;101585.31;5029643;28;20107;-72
2022/03/31 05:32:19;;;;;;;8.27;1.65;;;;;;;11.03;36.14;101585.13;5029569;28;20030;-72
2022/03/31 05:34:44;;;;;;;7.40;2.47;;;;;;;11.48;35.34;101604.72;5029626;28;20040;-73
2022/03/31 05:37:10;;;;;;;4.63;1.30;;;;;;;11.56;34.75;101610.34;5044755;28;20049;-71
2022/03/31 05:39:36;;;;;;;3.85;1.30;;;;;;;11.53;35.09;101602.72;5049451;28;20029;-72
2022/03/31 05:42:02;;;;;;;6.95;1.45;;;;;;;11.18;35.14;101603.25;5049098;28;20041;-72
2022/03/31 05:44:28;;;;;;;4.07;1.52;;;;;;;11.76;34.08;101620.13;5049438;28;20040;-73
2022/03/31 05:46:53;;;;;;;4.45;1.60;;;;;;;11.74;34.99;101611.41;5049359;28;20025;-71
2022/03/31 05:49:19;;;;;;;6.82;1.48;;;;;;;11.13;36.06;101628.78;5049280;28;20476;-71
2022/03/31 05:51:45;;;;;;;5.57;1.15;;;;;;;11.54;34.78;101620.75;5043114;28;20041;-71
2022/03/31 05:54:11;;;;;;;3.92;1.23;;;;;;;11.26;35.17;101632.69;5039034;28;20124;-71
2022/03/31 05:56:36;;;;;;;5.05;1.17;;;;;;;11.86;34.86;101638.34;5035835;28;20033;-71
2022/03/31 05:59:02;;;;;;;5.22;2.08;;;;;;;11.61;35.03;101645.03;5039693;28;20032;-72
2022/03/31 06:01:27;;;;;;;7.03;1.42;;;;;;;11.51;35.22;101651.47;5038273;28;20065;-71
2022/03/31 06:03:55;;;;;;;13.32;1.75;;;;;;;11.45;35.47;101641.72;5041300;28;20029;-71
2022/03/31 06:06:20;;;;;;;3.90;1.33;;;;;;;11.66;35.42;101656.72;5041939;28;20029;-72
2022/03/31 06:08:46;;;;;;;5.80;1.58;;;;;;;10.98;36.25;101650.88;5038053;28;20034;-71
2022/03/31 06:11:11;;;;;;;6.93;1.45;;;;;;;11.54;35.35;101656.34;5032498;28;20090;-75
2022/03/31 06:13:37;;;;;;;5.03;1.40;;;;;;;11.36;35.69;101660.72;5031472;28;20030;-72
2022/03/31 06:16:03;;;;;;;4.85;0.90;;;;;;;11.51;35.49;101662.44;5032612;28;20078;-71
2022/03/31 06:18:29;;;;;;;7.32;1.30;;;;;;;11.92;34.91;101661.78;5032540;28;20025;-72
2022/03/31 06:20:54;;;;;;;4.45;1.48;;;;;;;11.74;35.29;101659.88;5032561;28;20035;-71
2022/03/31 06:23:20;;;;;;;5.43;1.38;;;;;;;11.09;36.38;101655.06;5032831;28;20029;-72
2022/03/31 06:25:46;;;;;;;5.63;1.90;;;;;;;11.53;35.41;101657.47;5035080;28;20036;-72
2022/03/31 06:28:14;;;;;;;3.50;1.17;;;;;;;11.17;36.53;101679.03;5048647;28;20033;-71
2022/03/31 06:30:39;;;;;;;9.05;1.90;;;;;;;11.18;36.13;101664.25;5050616;28;20033;-71
2022/03/31 06:33:05;;;;;;;8.10;1.92;;;;;;;11.77;35.24;101668.31;5052164;28;20033;-72
2022/03/31 06:35:31;;;;;;;3.85;1.42;;;;;;;11.37;36.26;101669.75;5050851;28;20033;-72
2022/03/31 06:37:56;;;;;;;5.88;1.27;;;;;;;11.10;36.74;101662.16;5052107;28;20029;-72
2022/03/31 06:40:22;;;;;;;9.07;2.25;;;;;;;11.50;35.90;101682.69;5052071;28;20108;-72
2022/03/31 06:42:48;;;;;;;2.95;1.10;;;;;;;11.11;35.84;101691.19;5051774;28;20060;-71
2022/03/31 06:45:16;;;;;;;5.25;1.73;;;;;;;11.42;35.63;101683.38;5052239;28;20514;-71
2022/03/31 06:47:45;;;;;;;5.70;1.15;;;;;;;11.40;36.04;101677.34;5051981;28;20070;-72
2022/03/31 06:50:13;;;;;;;6.25;1.83;;;;;;;11.39;35.58;101679.28;5051921;28;20032;-71
2022/03/31 06:52:39;;;;;;;4.25;1.30;;;;;;;11.58;35.56;101692.97;5051882;27;20044;-74
2022/03/31 06:55:05;;;;;;;8.40;2.42;;;;;;;11.08;36.45;101700.75;5051912;28;20028;-73
2022/03/31 06:57:31;;;;;;;5.70;1.70;;;;;;;11.41;35.89;101695.44;5066719;27;21232;-74
2022/03/31 06:59:57;;;;;;;4.13;1.63;;;;;;;11.04;36.19;101702.47;5067492;27;20033;-77
2022/03/31 07:02:23;;;;;;;10.93;2.13;;;;;;;11.42;35.12;101702.53;5064659;27;20539;-73
2022/03/31 07:04:48;;;;;;;5.05;1.35;;;;;;;11.26;36.02;101709.28;5055094;27;20018;-73
2022/03/31 07:07:15;;;;;;;5.72;1.45;;;;;;;12.08;35.60;101715.22;5049338;27;20029;-73
2022/03/31 07:09:40;;;;;;;8.20;2.28;;;;;;;12.15;35.99;101723.84;5035285;27;20029;-74
2022/03/31 07:12:06;;;;;;;8.43;2.80;;;;;;;11.88;36.52;101707.34;5034422;27;20048;-75
2022/03/31 07:14:35;;;;;;;7.03;1.95;;;;;;;12.29;35.31;101718.44;5033415;27;20031;-74
2022/03/31 07:17:01;;;;;;;5.97;2.42;;;;;;;11.98;35.61;101712.66;5033224;27;20031;-73
2022/03/31 07:19:27;;;;;;;5.97;1.30;;;;;;;12.36;34.87;101721.59;5033705;28;20570;-73
2022/03/31 07:21:52;;;;;;;7.40;2.15;;;;;;;12.38;34.85;101724.84;5032815;28;20031;-74
2022/03/31 07:24:18;;;;;;;7.13;1.55;;;;;;;12.56;34.67;101712.19;5032736;28;20387;-74
2022/03/31 07:26:43;;;;;;;5.53;1.27;;;;;;;11.85;35.23;101730.63;5033209;28;20390;-73
2022/03/31 07:29:09;;;;;;;5.15;1.40;;;;;;;12.56;34.87;101739.63;5038769;28;20387;-73
2022/03/31 07:31:35;;;;;;;5.88;1.45;;;;;;;12.05;35.33;101736.94;5049704;28;20439;-77
2022/03/31 07:34:00;;;;;;;12.02;1.83;;;;;;;12.00;35.10;101750.69;5050025;28;20678;-74
2022/03/31 07:36:26;;;;;;;5.15;1.60;;;;;;;12.72;34.57;101751.13;5051077;28;20107;-75
2022/03/31 07:38:52;;;;;;;12.52;2.38;;;;;;;12.78;34.83;101758.94;5051264;28;20053;-73
2022/03/31 07:41:18;;;;;;;11.73;2.25;;;;;;;12.34;34.51;101753.16;5051016;28;20060;-73
2022/03/31 07:43:44;;;;;;;6.78;1.45;;;;;;;12.46;34.54;101772.66;5051158;28;20036;-73
2022/03/31 07:46:10;;;;;;;9.43;1.60;;;;;;;13.20;33.84;101775.44;5051200;28;20224;-73
2022/03/31 07:48:36;;;;;;;5.38;1.15;;;;;;;12.91;34.15;101775.69;5050928;28;20028;-73
2022/03/31 07:51:02;;;;;;;7.28;1.48;;;;;;;13.44;33.30;101783.44;5051020;27;20057;-73
2022/03/31 07:53:32;;;;;;;6.50;2.78;;;;;;;12.90;33.98;101776.81;5050968;28;20540;-72
2022/03/31 07:56:00;;;;;;;13.32;2.13;;;;;;;13.18;33.58;101785.88;5036015;28;20036;-72
2022/03/31 07:58:25;;;;;;;3.65;1.25;;;;;;;12.72;34.28;101787.56;5046443;28;20044;-73
2022/03/31 08:00:52;;;;;;;6.63;1.33;;;;;;;13.80;33.21;101791.75;5049847;28;20041;-73
2022/03/31 08:03:19;;;;;;;4.95;1.08;;;;;;;13.58;33.01;101790.56;5044298;28;20111;-73
2022/03/31 08:05:45;;;;;;;7.00;1.40;;;;;;;13.72;32.87;101790.53;5049456;28;20021;-75
2022/03/31 08:08:11;;;;;;;11.23;1.88;;;;;;;12.84;34.16;101800.78;5050694;28;20486;-72
2022/03/31 08:10:37;;;;;;;9.77;2.37;;;;;;;13.54;33.33;101797.00;5050505;27;20028;-72
2022/03/31 08:13:03;;;;;;;6.47;2.50;;;;;;;13.33;33.74;101802.91;5050783;28;20235;-73
2022/03/31 08:15:28;;;;;;;8.50;1.33;;;;;;;14.03;32.60;101809.06;5050538;28;20041;-73
2022/03/31 08:17:54;;;;;;;8.48;1.70;;;;;;;12.75;33.32;101797.94;5049363;28;20129;-74
2022/03/31 08:20:21;;;;;;;4.47;1.30;;;;;;;12.14;32.63;101804.44;5050641;28;20374;-73
2022/03/31 08:22:47;;;;;;;6.75;1.10;;;;;;;12.35;32.72;101795.91;5050852;28;20033;-73
2022/03/31 08:25:15;;;;;;;3.42;1.33;;;;;;;13.01;33.74;101808.44;5048170;28;20125;-72
2022/03/31 08:27:42;;;;;;;7.70;0.93;;;;;;;12.44;32.10;101808.59;5046877;28;20044;-72
2022/03/31 08:30:11;;;;;;;8.45;1.58;;;;;;;13.38;33.17;101812.97;5045649;28;20093;-72
2022/03/31 08:32:39;;;;;;;3.37;1.23;;;;;;;13.51;32.86;101827.78;5047928;28;20026;-71
2022/03/31 08:35:07;;;;;;;3.20;1.48;;;;;;;12.42;31.95;101821.81;5047445;28;20761;-72
2022/03/31 08:37:33;;;;;;;3.25;0.82;;;;;;;12.53;31.78;101821.63;5045420;28;20106;-72
2022/03/31 08:39:58;;;;;;;4.68;1.65;;;;;;;13.03;32.04;101823.47;5043833;28;20036;-72
2022/03/31 08:42:24;;;;;;;5.63;1.98;;;;;;;12.96;32.84;101825.81;5032377;28;20779;-72
2022/03/31 08:44:51;;;;;;;6.88;1.77;;;;;;;13.57;31.78;101829.31;5049636;28;20032;-72
2022/03/31 08:47:20;;;;;;;3.60;0.80;;;;;;;13.21;31.32;101824.53;5048777;28;20029;-72
2022/03/31 08:49:47;;;;;;;6.07;1.80;;;;;;;13.40;32.00;101832.69;5050048;28;20053;-72
2022/03/31 08:52:13;;;;;;;5.22;1.05;;;;;;;13.30;30.21;101822.72;5049827;28;20037;-72
2022/03/31 08:54:40;;;;;;;9.43;1.58;;;;;;;13.54;30.37;101833.50;5048594;28;20033;-73
2022/03/31 08:57:06;;;;;;;5.05;1.67;;;;;;;13.49;30.63;101838.28;5049840;28;20555;-73
2022/03/31 08:59:32;;;;;;;3.15;0.80;;;;;;;12.50;31.02;101836.75;5049636;28;20058;-72
2022/03/31 09:01:58;;;;;;;4.60;1.45;;;;;;;13.08;30.49;101841.78;5046933;28;20343;-72
2022/03/31 09:04:25;;;;;;;4.70;0.90;;;;;;;13.23;30.08;101843.47;5047902;28;20040;-73
2022/03/31 09:07:04;;;;;;;3.13;0.82;;;;;;;12.83;28.68;101845.78;5046144;28;20047;-73
2022/03/31 09:09:30;;;;;;;2.92;0.93;;;;;;;12.56;28.65;101846.53;5048617;28;20033;-72
2022/03/31 09:11:56;;;;;;;1.95;0.82;;;;;;;12.52;28.32;101848.22;5041043;28;20029;-72
2022/03/31 09:14:32;;;;;;;4.68;1.63;;;;;;;13.67;29.79;101847.50;5049564;28;20033;-73
2022/03/31 09:17:12;;;;;;;5.93;1.30;;;;;;;14.73;29.32;101863.50;5048114;28;20467;-73
2022/03/31 09:19:39;;;;;;;4.75;0.93;;;;;;;14.84;29.82;101856.63;5041757;28;20073;-72
2022/03/31 09:22:05;;;;;;;6.32;1.38;;;;;;;14.96;29.91;101865.13;5038768;28;20017;-73
2022/03/31 09:24:31;;;;;;;4.22;1.00;;;;;;;14.97;29.62;101869.47;5048670;28;20029;-74
2022/03/31 09:26:59;;;;;;;10.43;1.20;;;;;;;15.30;28.84;101873.84;5046638;28;20017;-72
2022/03/31 09:29:26;;;;;;;7.93;1.20;;;;;;;15.10;29.21;101864.19;5049352;28;20021;-73
2022/03/31 09:31:53;;;;;;;4.05;1.45;;;;;;;15.02;29.21;101867.72;5047654;28;20033;-73
2022/03/31 09:34:20;;;;;;;5.93;1.20;;;;;;;15.35;28.68;101877.28;5048493;28;20029;-73
2022/03/31 09:36:51;;;;;;;7.43;1.30;;;;;;;14.82;29.37;101869.88;5047681;28;20028;-73
2022/03/31 09:39:18;;;;;;;3.40;1.60;;;;;;;14.66;30.19;101869.47;5047123;28;20025;-72
2022/03/31 09:41:50;;;;;;;6.03;1.73;;;;;;;15.39;29.42;101870.00;5045061;28;20540;-73
2022/03/31 09:44:22;;;;;;;4.55;1.30;;;;;;;14.94;29.39;101875.59;5049255;28;20029;-73
2022/03/31 09:46:48;;;;;;;2.60;1.10;;;;;;;15.42;29.76;101877.63;5049082;28;20049;-74
2022/03/31 09:49:17;;;;;;;8.25;1.95;;;;;;;15.14;29.57;101878.97;5049019;28;20021;-73
2022/03/31 09:51:45;;;;;;;5.25;1.20;;;;;;;15.29;29.47;101880.50;5048940;28;20036;-72
2022/03/31 09:54:11;;;;;;;7.13;1.48;;;;;;;15.33;29.65;101876.75;5045558;28;20029;-72
2022/03/31 09:56:40;;;;;;;8.75;1.40;;;;;;;15.10;29.99;101888.97;5044433;28;20032;-72
2022/03/31 09:59:11;;;;;;;13.98;1.65;;;;;;;15.24;30.01;101886.94;5047173;28;20112;-75
2022/03/31 10:01:38;;;;;;;6.00;1.48;;;;;;;15.25;29.96;101889.38;5046037;28;20054;-73
2022/03/31 10:04:06;;;;;;;5.57;1.80;;;;;;;15.28;29.86;101898.97;5041067;28;20069;-74
2022/03/31 10:06:37;;;;;;;6.57;1.50;;;;;;;15.02;29.09;101895.22;5038725;28;20096;-78
2022/03/31 10:09:05;;;;;;;17.48;3.22;;;;;;;15.43;29.44;101901.28;5036666;28;20021;-74
2022/03/31 10:11:34;;;;;;;3.88;1.77;;;;;;;14.58;30.56;101894.13;5040760;27;20387;-73
2022/03/31 10:14:18;;;;;;;4.70;1.27;;;;;;;14.75;30.73;101896.22;5038305;28;20039;-75
2022/03/31 10:17:06;;;;;;;4.15;1.30;;;;;;;15.46;29.46;101902.59;5039381;28;20039;-75
2022/03/31 10:19:40;;;;;;;8.18;2.00;;;;;;;15.32;29.17;101897.19;5036236;28;20033;-73
2022/03/31 10:25:09;;;;;;;5.15;1.63;;;;;;;15.55;30.46;101907.00;5037389;28;20426;-79
2022/03/31 10:27:40;;;;;;;5.25;1.83;;;;;;;15.68;30.56;101910.81;5039888;28;20112;-79
2022/03/31 10:30:21;;;;;;;5.05;1.65;;;;;;;15.68;29.91;101910.81;5036565;28;20025;-78
2022/03/31 10:32:57;;;;;;;4.75;1.50;;;;;;;15.80;28.95;101907.44;5037977;28;20505;-76
2022/03/31 10:35:29;;;;;;;5.20;1.38;;;;;;;15.37;29.52;101902.56;5035850;28;20379;-76
2022/03/31 10:37:57;;;;;;;6.53;1.35;;;;;;;15.69;29.65;101911.63;5037656;28;20017;-76
2022/03/31 10:40:34;;;;;;;6.13;1.48;;;;;;;15.51;30.43;101913.47;5039481;28;20079;-79
2022/03/31 10:43:01;;;;;;;4.15;1.35;;;;;;;14.55;32.04;101911.25;5038278;28;20045;-80
2022/03/31 10:45:40;;;;;;;3.95;1.50;;;;;;;14.55;30.21;101908.50;5037357;28;20022;-78
2022/03/31 10:48:24;;;;;;;8.32;2.25;;;;;;;15.31;31.25;101911.28;5037399;28;20022;-74
2022/03/31 10:51:11;;;;;;;5.78;1.15;;;;;;;14.87;30.25;101918.44;5038000;28;20476;-78
2022/03/31 10:53:45;;;;;;;6.00;2.10;;;;;;;16.21;29.10;101920.00;5042219;28;20022;-78
2022/03/31 10:56:20;;;;;;;6.22;1.60;;;;;;;14.89;31.00;101927.22;5041432;28;20052;-75
2022/03/31 10:58:49;;;;;;;2.90;1.20;;;;;;;15.85;29.74;101923.81;5040658;28;20017;-78
2022/03/31 11:01:15;;;;;;;4.70;1.70;;;;;;;15.91;29.88;101914.28;5041218;28;20037;-78
2022/03/31 11:03:40;;;;;;;8.13;1.30;;;;;;;15.70;29.33;101914.06;5042698;28;20330;-75
2022/03/31 11:06:13;;;;;;;4.90;1.40;;;;;;;16.04;30.19;101918.84;5040634;28;20025;-78
2022/03/31 11:08:47;;;;;;;12.82;2.95;;;;;;;16.75;28.38;101904.78;5040275;28;20026;-77
2022/03/31 11:11:29;;;;;;;7.50;1.95;;;;;;;17.07;28.20;101900.66;5047174;28;20049;-79
2022/03/31 11:13:57;;;;;;;5.95;1.40;;;;;;;16.22;29.28;101908.66;5050203;28;20021;-74
2022/03/31 11:16:34;;;;;;;5.78;1.00;;;;;;;15.29;29.59;101900.56;5051386;28;20025;-78
2022/03/31 11:19:04;;;;;;;3.28;1.58;;;;;;;16.05;29.17;101914.97;5051540;28;20021;-80
2022/03/31 11:21:38;;;;;;;2.80;1.45;;;;;;;15.74;28.61;101905.97;5051773;28;20381;-79
2022/03/31 11:24:05;;;;;;;3.97;1.23;;;;;;;15.98;29.00;101897.28;5051018;28;20029;-76
2022/03/31 11:26:40;;;;;;;6.82;1.20;;;;;;;15.75;28.58;101893.81;5049096;28;20017;-75
2022/03/31 11:29:19;;;;;;;5.40;1.35;;;;;;;15.64;28.30;101901.56;5050715;28;20025;-76
2022/03/31 11:31:49;;;;;;;4.78;1.80;;;;;;;15.94;29.06;101890.75;5049664;28;20025;-73